Terminal Aerodrome Forecast
Issued by NWS

Home | Current Version | Previous Version | Graphics & Text | Print | Product List | Glossary On
Versions: 1 2 3 4 5 6 7 8 9 10 11 12 13 14 15 16 17
000
FTUS43 KMPX 260533
TAFAXN
TAF
KAXN 260533Z 2606/2706 19006KT P6SM VCSH BKN080
     FM260800 20006KT P6SM BKN250
     FM261400 24012KT P6SM FEW250
     FM270000 VRB04KT P6SM BKN200=

USA.gov is the U.S. government's official web portal to all federal, state and local government web resources and services.